createdAt,value
2018-10-16T00:00:16.334Z,14.30
2018-10-16T00:02:44.582Z,14.30
2018-10-16T00:05:12.114Z,14.30
2018-10-16T00:07:39.629Z,14.30
2018-10-16T00:10:08.289Z,14.20
2018-10-16T00:12:35.845Z,14.20
2018-10-16T00:15:03.574Z,14.20
2018-10-16T00:17:31.098Z,14.10
2018-10-16T00:19:58.635Z,14.10
2018-10-16T00:22:26.158Z,14.10
2018-10-16T00:24:53.680Z,14.10
2018-10-16T00:27:21.208Z,14.10
2018-10-16T00:29:48.742Z,14.10
2018-10-16T00:32:16.274Z,14.10
2018-10-16T00:34:43.835Z,14.10
2018-10-16T00:37:11.359Z,14.10
2018-10-16T00:39:38.897Z,14.10
2018-10-16T00:42:06.419Z,14.10
2018-10-16T00:44:33.947Z,14.10
2018-10-16T00:47:01.493Z,14.10
2018-10-16T00:49:29.016Z,14.10
2018-10-16T00:51:56.533Z,14.10
2018-10-16T00:54:24.053Z,14.00
2018-10-16T00:56:51.562Z,13.90
2018-10-16T00:59:19.094Z,13.80
2018-10-16T01:01:46.618Z,13.80
2018-10-16T01:04:14.138Z,13.70
2018-10-16T01:06:41.675Z,13.70
2018-10-16T01:09:10.449Z,13.70
2018-10-16T01:11:38.429Z,13.70
2018-10-16T01:14:05.984Z,13.80
2018-10-16T01:16:33.519Z,13.80
2018-10-16T01:19:01.042Z,13.70
2018-10-16T01:21:28.562Z,13.70
2018-10-16T01:23:56.102Z,13.70
2018-10-16T01:26:23.618Z,13.70
2018-10-16T01:28:51.137Z,13.80
2018-10-16T01:31:18.642Z,13.80
2018-10-16T01:33:46.198Z,13.80
2018-10-16T01:36:13.731Z,13.80
2018-10-16T01:38:41.242Z,13.80
2018-10-16T01:41:09.762Z,13.80
2018-10-16T01:43:37.814Z,13.70
2018-10-16T01:46:05.337Z,13.60
2018-10-16T01:48:32.846Z,13.50
2018-10-16T01:51:00.362Z,13.40
2018-10-16T01:53:27.866Z,13.30
2018-10-16T01:55:55.395Z,13.20
2018-10-16T01:58:22.893Z,13.30
2018-10-16T02:00:50.406Z,13.30
2018-10-16T02:03:17.911Z,13.40
2018-10-16T02:05:45.434Z,13.50
2018-10-16T02:08:12.954Z,13.50
2018-10-16T02:10:40.465Z,13.50
2018-10-16T02:13:07.971Z,13.60
2018-10-16T02:15:35.511Z,13.60
2018-10-16T02:18:03.031Z,13.70
2018-10-16T02:20:30.563Z,13.70
2018-10-16T02:22:58.079Z,13.80
2018-10-16T02:25:25.606Z,13.90
2018-10-16T02:27:53.127Z,14.00
2018-10-16T02:30:20.659Z,14.10
2018-10-16T02:32:48.182Z,14.30
2018-10-16T02:35:15.711Z,14.40
2018-10-16T02:37:43.222Z,14.40
2018-10-16T02:40:10.881Z,14.60
2018-10-16T02:42:39.159Z,14.70
2018-10-16T02:45:08.459Z,14.80
2018-10-16T02:47:35.998Z,14.90
2018-10-16T02:50:04.123Z,15.00
2018-10-16T02:52:31.755Z,15.10
2018-10-16T02:54:59.299Z,15.20
2018-10-16T02:57:27.061Z,15.30
2018-10-16T02:59:54.738Z,15.40
2018-10-16T03:02:22.256Z,15.50
2018-10-16T03:04:49.789Z,15.50
2018-10-16T03:07:17.309Z,15.50
2018-10-16T03:09:44.983Z,15.50
2018-10-16T03:12:12.533Z,15.50
2018-10-16T03:14:40.108Z,15.40
2018-10-16T03:17:07.682Z,15.40
2018-10-16T03:19:35.227Z,15.40
2018-10-16T03:22:02.761Z,15.40
2018-10-16T03:24:30.306Z,15.40
2018-10-16T03:26:57.854Z,15.50
2018-10-16T03:29:25.375Z,15.50
2018-10-16T03:31:52.919Z,15.50
2018-10-16T03:34:20.458Z,15.50
2018-10-16T03:36:47.990Z,15.40
2018-10-16T03:39:15.523Z,15.40
2018-10-16T03:41:43.062Z,15.40
2018-10-16T03:44:11.945Z,15.40
2018-10-16T03:46:39.503Z,15.50
2018-10-16T03:49:07.773Z,15.50
2018-10-16T03:51:35.318Z,15.50
2018-10-16T03:54:02.862Z,15.50
2018-10-16T03:56:30.406Z,15.60
2018-10-16T03:58:57.934Z,15.60
2018-10-16T04:01:26.291Z,15.60
2018-10-16T04:03:53.870Z,15.60
2018-10-16T04:06:22.039Z,15.60
2018-10-16T04:08:50.302Z,15.70
2018-10-16T04:11:18.287Z,15.70
2018-10-16T04:13:45.825Z,15.70
2018-10-16T04:16:13.378Z,15.70
2018-10-16T04:18:40.890Z,15.70
2018-10-16T04:21:09.229Z,15.70
2018-10-16T04:23:37.279Z,15.70
2018-10-16T04:26:05.186Z,15.70
2018-10-16T04:28:32.907Z,15.70
2018-10-16T04:31:00.431Z,15.70
2018-10-16T04:33:27.955Z,15.70
2018-10-16T04:35:55.471Z,15.70
2018-10-16T04:38:22.989Z,15.70
2018-10-16T04:40:50.519Z,15.70
2018-10-16T04:43:18.028Z,15.70
2018-10-16T04:45:45.526Z,15.70
2018-10-16T04:48:13.013Z,15.70
2018-10-16T04:50:40.507Z,15.70
2018-10-16T04:53:07.986Z,15.70
2018-10-16T04:55:35.485Z,15.70
2018-10-16T04:58:02.990Z,15.70
2018-10-16T05:00:30.478Z,15.60
2018-10-16T05:02:59.514Z,15.70
2018-10-16T05:05:27.049Z,15.60
2018-10-16T05:07:54.550Z,15.60
2018-10-16T05:10:22.338Z,15.60
2018-10-16T05:12:50.021Z,15.60
2018-10-16T05:15:24.806Z,15.60
2018-10-16T05:17:52.417Z,15.60
2018-10-16T05:20:19.911Z,15.60
2018-10-16T05:22:47.458Z,15.60
2018-10-16T05:25:14.958Z,15.60
2018-10-16T05:27:42.491Z,15.60
2018-10-16T05:30:10.094Z,15.60
2018-10-16T05:32:37.767Z,15.60
2018-10-16T05:35:05.836Z,15.60
2018-10-16T05:37:33.396Z,15.60
2018-10-16T05:40:00.871Z,15.60
2018-10-16T05:42:28.370Z,15.60
2018-10-16T05:44:55.862Z,15.70
2018-10-16T05:47:23.384Z,15.70
2018-10-16T05:49:50.871Z,15.70
2018-10-16T05:52:18.362Z,15.80
2018-10-16T05:54:45.849Z,15.80
2018-10-16T05:57:13.358Z,15.80
2018-10-16T05:59:40.854Z,15.90
2018-10-16T06:02:08.791Z,15.90
2018-10-16T06:04:36.282Z,15.90
2018-10-16T06:07:04.026Z,15.90
2018-10-16T06:09:31.519Z,15.90
2018-10-16T06:11:59.056Z,15.90
2018-10-16T06:14:26.582Z,16.00
2018-10-16T06:16:54.075Z,16.00
2018-10-16T06:19:21.568Z,16.10
2018-10-16T06:21:49.054Z,16.10
2018-10-16T06:24:37.676Z,16.20
2018-10-16T06:27:05.332Z,16.30
2018-10-16T06:29:32.827Z,16.30
2018-10-16T06:32:00.322Z,16.40
2018-10-16T06:34:27.802Z,16.50
2018-10-16T06:36:55.306Z,16.60
2018-10-16T06:39:22.794Z,16.60
2018-10-16T06:41:50.295Z,16.70
2018-10-16T06:44:17.803Z,16.70
2018-10-16T06:46:45.289Z,16.70
2018-10-16T06:49:12.773Z,16.80
2018-10-16T06:51:40.271Z,16.80
2018-10-16T06:54:07.768Z,16.80
2018-10-16T06:56:35.306Z,16.90
2018-10-16T06:59:02.799Z,17.00
2018-10-16T07:01:30.297Z,17.00
2018-10-16T07:03:57.799Z,17.10
2018-10-16T07:06:25.339Z,17.20
2018-10-16T07:08:52.806Z,17.20
2018-10-16T07:11:20.294Z,17.30
2018-10-16T07:13:47.843Z,17.40
2018-10-16T07:16:15.461Z,17.50
2018-10-16T07:18:42.995Z,17.60
2018-10-16T07:21:10.539Z,17.70
2018-10-16T07:23:38.075Z,17.80
2018-10-16T07:26:05.530Z,17.90
2018-10-16T07:28:33.034Z,18.00
2018-10-16T07:31:00.527Z,18.10
2018-10-16T07:33:28.014Z,18.20
2018-10-16T07:35:55.503Z,18.30
2018-10-16T07:38:23.060Z,18.30
2018-10-16T07:40:50.550Z,18.30
2018-10-16T07:43:18.042Z,18.40
2018-10-16T07:45:45.563Z,18.40
2018-10-16T07:48:13.187Z,18.50
2018-10-16T07:50:40.651Z,18.50
2018-10-16T07:53:08.193Z,18.60
2018-10-16T07:55:35.703Z,18.60
2018-10-16T07:58:03.382Z,18.70
2018-10-16T08:00:30.894Z,18.70
2018-10-16T08:02:58.455Z,18.80
2018-10-16T08:05:25.959Z,18.80
2018-10-16T08:07:53.507Z,18.80
2018-10-16T08:10:21.031Z,18.80
2018-10-16T08:12:48.546Z,18.70
2018-10-16T08:15:16.082Z,18.80
2018-10-16T08:17:43.603Z,18.70
2018-10-16T08:20:11.128Z,18.80
2018-10-16T08:22:38.649Z,18.80
2018-10-16T08:25:06.524Z,18.80
2018-10-16T08:27:34.042Z,18.80
2018-10-16T08:30:01.733Z,18.80
2018-10-16T08:32:29.190Z,18.80
2018-10-16T08:34:57.166Z,18.90
2018-10-16T08:37:55.878Z,18.90
2018-10-16T08:40:23.391Z,19.00
2018-10-16T08:44:15.228Z,19.10
2018-10-16T08:47:00.326Z,19.10
2018-10-16T08:49:45.359Z,19.20
2018-10-16T08:52:12.852Z,19.20
2018-10-16T08:54:40.392Z,19.30
2018-10-16T08:57:07.887Z,19.40
2018-10-16T08:59:35.391Z,19.60
2018-10-16T09:02:02.888Z,19.70
2018-10-16T09:04:30.383Z,19.80
2018-10-16T09:06:57.889Z,19.90
2018-10-16T09:09:25.388Z,20.10
2018-10-16T09:11:52.874Z,20.30
2018-10-16T09:14:20.390Z,20.60
2018-10-16T09:16:47.857Z,21.00
2018-10-16T09:19:15.352Z,21.40
2018-10-16T09:21:42.847Z,21.80
2018-10-16T09:24:10.334Z,22.10
2018-10-16T09:26:37.824Z,22.40
2018-10-16T09:29:05.530Z,22.80
2018-10-16T09:31:33.013Z,23.20
2018-10-16T09:34:00.513Z,23.50
2018-10-16T09:36:28.024Z,23.80
2018-10-16T09:38:55.513Z,24.00
2018-10-16T09:41:23.029Z,24.20
2018-10-16T09:43:50.530Z,24.30
2018-10-16T09:46:18.071Z,24.50
2018-10-16T09:48:45.602Z,24.80
2018-10-16T09:51:13.115Z,25.20
2018-10-16T09:53:40.635Z,25.60
2018-10-16T09:56:08.163Z,25.90
2018-10-16T09:58:35.672Z,26.40
2018-10-16T10:01:09.071Z,26.80
2018-10-16T10:03:36.606Z,27.20
2018-10-16T10:06:04.157Z,27.50
2018-10-16T10:08:31.678Z,27.80
2018-10-16T10:10:59.235Z,28.00
2018-10-16T10:13:26.718Z,28.10
2018-10-16T10:15:54.234Z,28.00
2018-10-16T10:18:21.762Z,27.70
2018-10-16T10:20:49.269Z,27.30
2018-10-16T10:23:16.841Z,26.90
2018-10-16T10:25:44.306Z,26.50
2018-10-16T10:28:11.822Z,26.40
2018-10-16T10:30:39.311Z,26.30
2018-10-16T10:33:06.842Z,26.30
2018-10-16T10:35:34.440Z,26.40
2018-10-16T10:38:01.868Z,26.40
2018-10-16T10:40:29.375Z,26.40
2018-10-16T10:42:56.891Z,26.30
2018-10-16T10:45:24.410Z,26.50
2018-10-16T10:47:51.907Z,27.10
2018-10-16T10:50:19.621Z,27.70
2018-10-16T10:52:46.961Z,28.10
2018-10-16T10:55:14.477Z,28.50
2018-10-16T10:57:41.989Z,28.50
2018-10-16T11:00:11.502Z,28.20
2018-10-16T11:02:39.791Z,27.90
2018-10-16T11:05:08.370Z,27.80
2018-10-16T11:07:35.880Z,27.80
2018-10-16T11:10:03.922Z,28.00
2018-10-16T11:12:31.431Z,28.20
2018-10-16T11:14:58.947Z,28.50
2018-10-16T11:17:26.495Z,28.80
2018-10-16T11:19:54.014Z,29.10
2018-10-16T11:22:21.539Z,29.30
2018-10-16T11:24:49.079Z,29.40
2018-10-16T11:27:16.630Z,29.50
2018-10-16T11:29:44.098Z,29.50
2018-10-16T11:32:11.610Z,29.40
2018-10-16T11:34:39.131Z,29.40
2018-10-16T11:37:06.729Z,29.30
2018-10-16T11:39:34.173Z,29.20
2018-10-16T11:42:01.683Z,29.20
2018-10-16T11:44:29.211Z,29.20
2018-10-16T11:46:56.746Z,29.20
2018-10-16T11:49:24.274Z,29.20
2018-10-16T11:51:51.790Z,29.00
2018-10-16T11:54:19.321Z,29.00
2018-10-16T11:56:46.835Z,28.90
2018-10-16T11:59:14.420Z,28.90
2018-10-16T12:01:41.882Z,28.90
2018-10-16T12:04:09.411Z,28.90
2018-10-16T12:06:36.935Z,29.10
2018-10-16T12:09:07.815Z,29.10
2018-10-16T12:11:35.779Z,29.00
2018-10-16T12:14:03.871Z,29.10
2018-10-16T12:16:34.495Z,29.10
2018-10-16T12:19:11.815Z,29.10
2018-10-16T12:21:39.194Z,29.00
2018-10-16T12:24:06.784Z,28.70
2018-10-16T12:26:34.230Z,28.50
2018-10-16T12:29:01.854Z,28.30
2018-10-16T12:31:29.278Z,27.90
2018-10-16T12:33:56.791Z,27.60
2018-10-16T12:36:24.291Z,27.30
2018-10-16T12:38:51.818Z,27.00
2018-10-16T12:41:19.339Z,26.80
2018-10-16T12:43:46.906Z,26.50
2018-10-16T12:46:14.484Z,26.30
2018-10-16T12:48:41.907Z,26.20
2018-10-16T12:51:09.515Z,25.90
2018-10-16T12:53:37.010Z,25.70
2018-10-16T12:56:05.391Z,25.50
2018-10-16T12:58:32.823Z,25.30
2018-10-16T13:01:00.342Z,25.10
2018-10-16T13:03:27.850Z,25.10
2018-10-16T13:05:55.378Z,25.00
2018-10-16T13:08:22.881Z,24.90
2018-10-16T13:10:50.421Z,24.80
2018-10-16T13:13:17.928Z,24.70
2018-10-16T13:15:45.450Z,24.70
2018-10-16T13:18:12.974Z,24.80
2018-10-16T13:20:40.502Z,24.90
2018-10-16T13:23:08.087Z,25.10
2018-10-16T13:25:35.550Z,25.20
2018-10-16T13:28:03.119Z,25.30
2018-10-16T13:30:30.594Z,25.40
2018-10-16T13:32:58.116Z,25.60
2018-10-16T13:35:25.631Z,25.80
2018-10-16T13:37:53.185Z,25.90
2018-10-16T13:40:20.666Z,25.90
2018-10-16T13:42:48.223Z,25.90
2018-10-16T13:45:16.413Z,26.00
2018-10-16T13:47:43.918Z,26.00
2018-10-16T13:50:13.047Z,26.10
2018-10-16T13:52:40.561Z,26.20
2018-10-16T13:55:09.054Z,26.30
2018-10-16T13:57:36.607Z,26.30
2018-10-16T14:00:11.724Z,26.30
2018-10-16T14:02:40.027Z,26.30
2018-10-16T14:05:07.532Z,26.30
2018-10-16T14:07:35.021Z,26.20
2018-10-16T14:10:02.586Z,26.10
2018-10-16T14:12:30.040Z,26.00
2018-10-16T14:14:57.525Z,25.80
2018-10-16T14:17:25.091Z,25.60
2018-10-16T14:19:52.613Z,25.40
2018-10-16T14:22:20.092Z,25.00
2018-10-16T14:24:47.584Z,24.70
2018-10-16T14:27:15.089Z,24.60
2018-10-16T14:29:42.594Z,24.60
2018-10-16T14:32:10.236Z,24.50
2018-10-16T14:34:37.659Z,24.50
2018-10-16T14:37:05.115Z,24.40
2018-10-16T14:39:32.602Z,24.30
2018-10-16T14:42:00.130Z,24.10
2018-10-16T14:44:27.643Z,23.90
2018-10-16T14:46:55.150Z,23.60
2018-10-16T14:49:22.653Z,23.40
2018-10-16T14:51:50.173Z,23.20
2018-10-16T14:54:17.686Z,22.90
2018-10-16T14:56:45.203Z,22.70
2018-10-16T14:59:12.720Z,22.40
2018-10-16T15:01:40.240Z,22.20
2018-10-16T15:04:07.807Z,22.10
2018-10-16T15:06:36.139Z,21.90
2018-10-16T15:09:06.413Z,21.80
2018-10-16T15:11:33.923Z,21.60
2018-10-16T15:14:01.443Z,21.40
2018-10-16T15:16:29.007Z,21.30
2018-10-16T15:18:56.470Z,21.10
2018-10-16T15:21:23.990Z,20.90
2018-10-16T15:23:51.547Z,20.80
2018-10-16T15:26:19.063Z,20.60
2018-10-16T15:28:46.584Z,20.50
2018-10-16T15:31:14.139Z,20.30
2018-10-16T15:33:41.650Z,20.20
2018-10-16T15:36:09.220Z,20.00
2018-10-16T15:38:36.698Z,19.90
2018-10-16T15:41:05.045Z,19.70
2018-10-16T15:43:32.524Z,19.50
2018-10-16T15:46:00.065Z,19.30
2018-10-16T15:48:27.537Z,19.10
2018-10-16T15:50:55.116Z,18.90
2018-10-16T15:53:22.599Z,18.70
2018-10-16T15:55:50.099Z,18.40
2018-10-16T15:58:17.701Z,18.20
2018-10-16T16:00:45.102Z,18.00
2018-10-16T16:03:12.598Z,17.70
2018-10-16T16:05:40.110Z,17.60
2018-10-16T16:08:07.673Z,17.40
2018-10-16T16:10:35.099Z,17.20
2018-10-16T16:13:09.821Z,17.10
2018-10-16T16:15:37.479Z,16.90
2018-10-16T16:18:05.308Z,16.80
2018-10-16T16:20:32.764Z,16.70
2018-10-16T16:23:00.278Z,16.60
2018-10-16T16:25:27.769Z,16.50
2018-10-16T16:27:55.294Z,16.50
2018-10-16T16:30:22.783Z,16.40
2018-10-16T16:32:50.427Z,16.30
2018-10-16T16:35:18.044Z,16.20
2018-10-16T16:37:45.870Z,16.10
2018-10-16T16:40:14.208Z,16.00
2018-10-16T16:42:42.100Z,15.90
2018-10-16T16:45:10.539Z,15.90
2018-10-16T16:47:38.530Z,15.80
2018-10-16T16:50:08.729Z,15.70
2018-10-16T16:52:36.651Z,15.60
2018-10-16T16:55:06.036Z,15.60
2018-10-16T16:57:33.823Z,15.50
2018-10-16T17:00:01.653Z,15.40
2018-10-16T17:02:29.452Z,15.40
2018-10-16T17:04:57.154Z,15.30
2018-10-16T17:07:24.940Z,15.30
2018-10-16T17:09:52.698Z,15.30
2018-10-16T17:12:20.468Z,15.20
2018-10-16T17:14:48.205Z,15.10
2018-10-16T17:17:15.943Z,15.00
2018-10-16T17:19:43.738Z,14.90
2018-10-16T17:22:11.642Z,14.80
2018-10-16T17:24:39.464Z,14.70
2018-10-16T17:27:07.183Z,14.60
2018-10-16T17:29:34.963Z,14.60
2018-10-16T17:32:02.784Z,14.60
2018-10-16T17:34:30.442Z,14.50
2018-10-16T17:36:58.265Z,14.40
2018-10-16T17:39:25.999Z,14.40
2018-10-16T17:41:53.728Z,14.30
2018-10-16T17:44:21.592Z,14.30
2018-10-16T17:46:49.472Z,14.30
2018-10-16T17:49:17.226Z,14.20
2018-10-16T17:51:45.015Z,14.10
2018-10-16T17:54:12.766Z,14.10
2018-10-16T17:56:40.574Z,14.00
2018-10-16T17:59:08.306Z,14.00
2018-10-16T18:01:36.131Z,13.90
2018-10-16T18:04:04.387Z,13.90
2018-10-16T18:06:32.111Z,13.80
2018-10-16T18:08:59.877Z,13.80
2018-10-16T18:11:27.623Z,13.80
2018-10-16T18:13:55.350Z,13.80
2018-10-16T18:16:23.176Z,13.70
2018-10-16T18:18:50.959Z,13.70
2018-10-16T18:21:18.691Z,13.60
2018-10-16T18:23:46.521Z,13.50
2018-10-16T18:26:14.336Z,13.40
2018-10-16T18:28:42.143Z,13.30
2018-10-16T18:31:09.896Z,13.30
2018-10-16T18:33:37.660Z,13.20
2018-10-16T18:36:05.484Z,13.20
2018-10-16T18:38:33.239Z,13.20
2018-10-16T18:41:01.055Z,13.20
2018-10-16T18:43:28.888Z,13.20
2018-10-16T18:45:56.604Z,13.10
2018-10-16T18:48:24.344Z,13.10
2018-10-16T18:50:52.169Z,13.10
2018-10-16T18:53:19.867Z,13.00
2018-10-16T18:55:47.605Z,13.00
2018-10-16T18:58:15.351Z,13.00
2018-10-16T19:00:43.175Z,13.00
2018-10-16T19:03:11.072Z,12.90
2018-10-16T19:05:38.688Z,12.90
2018-10-16T19:08:06.474Z,12.90
2018-10-16T19:10:34.552Z,12.90
2018-10-16T19:13:02.420Z,12.90
2018-10-16T19:15:30.245Z,12.90
2018-10-16T19:17:57.974Z,12.80
2018-10-16T19:20:25.704Z,12.80
2018-10-16T19:22:53.551Z,12.70
2018-10-16T19:25:21.591Z,12.70
2018-10-16T19:27:50.076Z,12.70
2018-10-16T19:30:17.831Z,12.70
2018-10-16T19:32:45.664Z,12.70
2018-10-16T19:35:14.553Z,12.70
2018-10-16T19:37:42.471Z,12.60
2018-10-16T19:40:10.228Z,12.60
2018-10-16T19:42:50.180Z,12.60
2018-10-16T19:45:18.060Z,12.50
2018-10-16T19:47:45.684Z,12.40
2018-10-16T19:50:13.444Z,12.40
2018-10-16T19:52:41.196Z,12.30
2018-10-16T19:55:09.004Z,12.20
2018-10-16T19:57:36.786Z,12.20
2018-10-16T20:00:06.295Z,12.20
2018-10-16T20:02:33.948Z,12.10
2018-10-16T20:05:06.371Z,12.10
2018-10-16T20:07:34.100Z,12.10
2018-10-16T20:10:01.914Z,12.00
2018-10-16T20:12:44.447Z,12.00
2018-10-16T20:15:12.701Z,11.90
2018-10-16T20:17:40.551Z,11.80
2018-10-16T20:20:09.315Z,11.80
2018-10-16T20:22:37.099Z,11.80
2018-10-16T20:25:06.264Z,11.70
2018-10-16T20:27:34.099Z,11.70
2018-10-16T20:30:01.876Z,11.70
2018-10-16T20:32:29.647Z,11.70
2018-10-16T20:34:57.443Z,11.70
2018-10-16T20:37:25.256Z,11.70
2018-10-16T20:39:53.088Z,11.70
2018-10-16T20:42:20.843Z,11.70
2018-10-16T20:44:48.635Z,11.60
2018-10-16T20:47:16.444Z,11.60
2018-10-16T20:49:46.250Z,11.50
2018-10-16T20:52:13.975Z,11.40
2018-10-16T20:54:41.735Z,11.30
2018-10-16T20:57:09.444Z,11.20
2018-10-16T20:59:38.057Z,11.20
2018-10-16T21:02:05.939Z,11.10
2018-10-16T21:04:33.696Z,11.10
2018-10-16T21:07:01.643Z,11.10
2018-10-16T21:09:29.209Z,11.00
2018-10-16T21:11:56.955Z,11.00
2018-10-16T21:14:31.372Z,11.00
2018-10-16T21:16:59.148Z,11.00
2018-10-16T21:19:26.862Z,10.90
2018-10-16T21:21:54.558Z,10.80
2018-10-16T21:24:22.292Z,10.80
2018-10-16T21:27:02.918Z,10.80
2018-10-16T21:29:30.791Z,10.80
2018-10-16T21:31:58.554Z,10.70
2018-10-16T21:34:26.351Z,10.60
2018-10-16T21:36:54.125Z,10.60
2018-10-16T21:39:21.974Z,10.60
2018-10-16T21:41:49.711Z,10.50
2018-10-16T21:44:17.954Z,10.40
2018-10-16T21:46:45.655Z,10.40
2018-10-16T21:49:13.428Z,10.40
2018-10-16T21:51:41.363Z,10.30
2018-10-16T21:54:09.102Z,10.30
2018-10-16T21:56:37.095Z,10.20
2018-10-16T21:59:04.860Z,10.20
2018-10-16T22:01:38.348Z,10.20
2018-10-16T22:04:06.104Z,10.20
2018-10-16T22:06:33.918Z,10.10
2018-10-16T22:09:01.706Z,10.10
2018-10-16T22:11:29.447Z,10.10
2018-10-16T22:13:57.277Z,10.10
2018-10-16T22:16:25.058Z,10.00
2018-10-16T22:18:52.898Z,10.00
2018-10-16T22:21:20.630Z,9.90
2018-10-16T22:23:48.489Z,9.90
2018-10-16T22:26:16.264Z,9.80
2018-10-16T22:28:44.095Z,9.80
2018-10-16T22:31:12.011Z,9.80
2018-10-16T22:33:39.669Z,9.70
2018-10-16T22:36:07.434Z,9.60
2018-10-16T22:38:35.159Z,9.60
2018-10-16T22:41:03.157Z,9.70
2018-10-16T22:43:30.791Z,9.60
2018-10-16T22:45:58.551Z,9.60
2018-10-16T22:48:26.295Z,9.60
2018-10-16T22:50:53.986Z,9.50
2018-10-16T22:53:21.748Z,9.50
2018-10-16T22:55:49.535Z,9.50
2018-10-16T22:58:17.335Z,9.40
2018-10-16T23:00:45.106Z,9.40
2018-10-16T23:03:12.855Z,9.40
2018-10-16T23:05:40.583Z,9.40
2018-10-16T23:08:08.416Z,9.30
2018-10-16T23:10:36.223Z,9.30
2018-10-16T23:13:05.090Z,9.30
2018-10-16T23:15:32.959Z,9.30
2018-10-16T23:18:00.891Z,9.40
2018-10-16T23:20:28.667Z,9.40
2018-10-16T23:22:56.771Z,9.40
2018-10-16T23:25:24.458Z,9.40
2018-10-16T23:27:52.255Z,9.40
2018-10-16T23:30:20.075Z,9.30
2018-10-16T23:32:48.019Z,9.30
2018-10-16T23:35:16.219Z,9.30
2018-10-16T23:37:43.935Z,9.30
2018-10-16T23:40:11.764Z,9.30
2018-10-16T23:42:39.764Z,9.30
2018-10-16T23:45:07.543Z,9.30
2018-10-16T23:47:35.278Z,9.20
2018-10-16T23:50:03.411Z,9.30
2018-10-16T23:52:31.147Z,9.20
2018-10-16T23:54:58.934Z,9.20
2018-10-16T23:57:26.710Z,9.10
2018-10-16T23:59:54.490Z,9.10
